sensor_id;sensor_type;location;lat;lon;timestamp;pressure;altitude;pressure_sealevel;temperature;humidity
78573;BME280;67862;0.000;0.000;2024-01-16T21:29:01;98722.47;;;22.29;55.74
78573;BME280;67862;0.000;0.000;2024-01-16T21:31:27;98721.88;;;22.32;55.82
78573;BME280;67862;0.000;0.000;2024-01-16T21:33:53;98718.25;;;22.23;55.82
78573;BME280;67862;0.000;0.000;2024-01-16T21:36:19;98718.47;;;22.13;56.02
78573;BME280;67862;0.000;0.000;2024-01-16T21:38:45;98720.78;;;22.06;56.38
78573;BME280;67862;0.000;0.000;2024-01-16T21:41:11;98717.66;;;21.98;56.61
78573;BME280;67862;0.000;0.000;2024-01-16T21:43:37;98714.72;;;21.95;56.93
78573;BME280;67862;0.000;0.000;2024-01-16T21:46:03;98713.72;;;21.91;56.85
78573;BME280;67862;0.000;0.000;2024-01-16T21:48:28;98715.13;;;21.88;56.71
78573;BME280;67862;0.000;0.000;2024-01-16T21:50:54;98704.81;;;21.85;56.92
78573;BME280;67862;0.000;0.000;2024-01-16T21:53:22;98701.59;;;21.83;57.13
78573;BME280;67862;0.000;0.000;2024-01-16T21:55:48;98700.25;;;21.81;57.05
78573;BME280;67862;0.000;0.000;2024-01-16T21:58:13;98698.13;;;21.78;57.66
78573;BME280;67862;0.000;0.000;2024-01-16T22:00:39;98701.16;;;21.76;57.52
78573;BME280;67862;0.000;0.000;2024-01-16T22:03:06;98698.75;;;21.75;57.71
78573;BME280;67862;0.000;0.000;2024-01-16T22:05:33;98691.84;;;21.77;58.47
78573;BME280;67862;0.000;0.000;2024-01-16T22:08:00;98689.44;;;21.76;58.13
78573;BME280;67862;0.000;0.000;2024-01-16T22:10:27;98680.75;;;21.74;57.92
78573;BME280;67862;0.000;0.000;2024-01-16T22:12:52;98684.88;;;21.71;57.49
78573;BME280;67862;0.000;0.000;2024-01-16T22:15:17;98687.91;;;21.69;57.80
78573;BME280;67862;0.000;0.000;2024-01-16T22:17:43;98685.00;;;21.66;57.65
78573;BME280;67862;0.000;0.000;2024-01-16T22:20:08;98690.75;;;21.64;57.77
78573;BME280;67862;0.000;0.000;2024-01-16T22:22:35;98685.19;;;21.69;58.23
78573;BME280;67862;0.000;0.000;2024-01-16T22:25:03;98684.88;;;21.71;58.15
78573;BME280;67862;0.000;0.000;2024-01-16T22:27:29;98682.44;;;21.69;58.28
78573;BME280;67862;0.000;0.000;2024-01-16T22:29:54;98680.03;;;21.68;58.26
78573;BME280;67862;0.000;0.000;2024-01-16T22:32:19;98680.34;;;21.66;58.23
78573;BME280;67862;0.000;0.000;2024-01-16T22:34:46;98672.44;;;21.65;57.91
78573;BME280;67862;0.000;0.000;2024-01-16T22:37:12;98672.75;;;21.63;57.93
78573;BME280;67862;0.000;0.000;2024-01-16T22:39:38;98678.22;;;21.63;58.41
78573;BME280;67862;0.000;0.000;2024-01-16T22:42:07;98673.06;;;21.62;58.46
78573;BME280;67862;0.000;0.000;2024-01-16T22:44:35;98663.22;;;21.61;58.47
78573;BME280;67862;0.000;0.000;2024-01-16T22:47:00;98669.50;;;21.61;58.42
78573;BME280;67862;0.000;0.000;2024-01-16T22:49:26;98671.72;;;21.59;58.65
78573;BME280;67862;0.000;0.000;2024-01-16T22:51:52;98671.22;;;21.57;58.65
78573;BME280;67862;0.000;0.000;2024-01-16T22:54:17;98672.03;;;21.58;58.65
78573;BME280;67862;0.000;0.000;2024-01-16T22:56:42;98664.97;;;21.57;58.71
78573;BME280;67862;0.000;0.000;2024-01-16T22:59:08;98664.97;;;21.57;58.77
78573;BME280;67862;0.000;0.000;2024-01-16T23:01:34;98654.34;;;21.55;59.02
78573;BME280;67862;0.000;0.000;2024-01-16T23:03:59;98652.41;;;21.56;58.70
78573;BME280;67862;0.000;0.000;2024-01-16T23:06:26;98661.72;;;21.55;59.01
78573;BME280;67862;0.000;0.000;2024-01-16T23:08:53;98659.00;;;21.55;59.43
78573;BME280;67862;0.000;0.000;2024-01-16T23:11:18;98653.03;;;21.53;59.30
78573;BME280;67862;0.000;0.000;2024-01-16T23:13:44;98653.53;;;21.55;58.98
78573;BME280;67862;0.000;0.000;2024-01-16T23:16:09;98650.31;;;21.53;59.17
78573;BME280;67862;0.000;0.000;2024-01-16T23:18:34;98658.50;;;21.53;59.29
78573;BME280;67862;0.000;0.000;2024-01-16T23:21:01;98640.47;;;21.52;59.48
78573;BME280;67862;0.000;0.000;2024-01-16T23:23:27;98642.91;;;21.53;59.21
78573;BME280;67862;0.000;0.000;2024-01-16T23:25:53;98642.13;;;21.53;59.33
78573;BME280;67862;0.000;0.000;2024-01-16T23:28:19;98624.59;;;21.54;59.55
78573;BME280;67862;0.000;0.000;2024-01-16T23:30:45;98638.25;;;21.54;59.76
78573;BME280;67862;0.000;0.000;2024-01-16T23:33:10;98621.06;;;21.53;59.27
78573;BME280;67862;0.000;0.000;2024-01-16T23:35:36;98619.16;;;21.54;59.66
78573;BME280;67862;0.000;0.000;2024-01-16T23:38:01;98619.16;;;21.54;59.74
78573;BME280;67862;0.000;0.000;2024-01-16T23:40:26;98613.69;;;21.54;59.62
78573;BME280;67862;0.000;0.000;2024-01-16T23:42:52;98609.84;;;21.55;59.56
78573;BME280;67862;0.000;0.000;2024-01-16T23:45:17;98614.19;;;21.56;59.15
78573;BME280;67862;0.000;0.000;2024-01-16T23:47:44;98604.38;;;21.55;59.21
78573;BME280;67862;0.000;0.000;2024-01-16T23:50:12;98597.78;;;21.56;59.21
78573;BME280;67862;0.000;0.000;2024-01-16T23:52:38;98601.34;;;21.56;59.92
78573;BME280;67862;0.000;0.000;2024-01-16T23:55:04;98600.53;;;21.56;59.45
78573;BME280;67862;0.000;0.000;2024-01-16T23:57:30;98598.91;;;21.55;59.40
78573;BME280;67862;0.000;0.000;2024-01-16T23:59:55;98604.06;;;21.56;59.00
